Time;durP1;ratioP1;P1;durP2;ratioP2;P2;SDS_P1;SDS_P2;PMS_P1;PMS_P2;Temp;Humidity;BMP_temperature;BMP_pressure;BME280_temperature;BME280_humidity;BME280_pressure;Samples;Min_cycle;Max_cycle;Signal;HPM_P1;HPM_P2
2022/05/20 00:00:05;;;;;;;14.73;7.57;;;16.30;94.70;;;;;;5022618;28;20047;-68
2022/05/20 00:02:32;;;;;;;16.63;7.10;;;16.30;94.60;;;;;;5027755;28;20029;-68
2022/05/20 00:04:59;;;;;;;11.95;7.28;;;16.20;94.40;;;;;;5038695;28;20044;-67
2022/05/20 00:07:25;;;;;;;15.52;7.10;;;16.20;94.30;;;;;;5031728;28;20029;-68
2022/05/20 00:09:51;;;;;;;12.77;7.10;;;16.20;94.30;;;;;;5052668;28;20064;-68
2022/05/20 00:12:17;;;;;;;11.48;6.95;;;16.10;94.50;;;;;;5045157;28;20029;-68
2022/05/20 00:14:46;;;;;;;14.38;7.35;;;16.10;94.50;;;;;;5034424;28;20047;-68
2022/05/20 00:17:14;;;;;;;11.60;7.43;;;16.20;94.90;;;;;;5051648;28;20209;-68
2022/05/20 00:19:40;;;;;;;13.18;6.63;;;16.20;95.20;;;;;;5053916;28;20406;-67
2022/05/20 00:22:06;;;;;;;13.30;7.07;;;16.30;95.20;;;;;;5053868;28;20028;-68
2022/05/20 00:24:32;;;;;;;11.00;6.65;;;16.30;95.40;;;;;;5053780;28;20017;-68
2022/05/20 00:26:58;;;;;;;12.55;7.05;;;16.30;95.40;;;;;;5050671;28;20104;-68
2022/05/20 00:29:24;;;;;;;12.77;6.75;;;16.20;95.00;;;;;;5058295;28;20162;-68
2022/05/20 00:31:50;;;;;;;18.58;6.30;;;16.20;95.20;;;;;;5056678;28;20024;-68
2022/05/20 00:34:18;;;;;;;14.07;6.45;;;16.10;94.80;;;;;;5051172;28;20032;-67
2022/05/20 00:36:46;;;;;;;10.73;6.90;;;16.30;96.00;;;;;;5051973;28;20021;-68
2022/05/20 00:39:12;;;;;;;11.00;5.72;;;16.40;96.40;;;;;;5051397;28;20029;-68
2022/05/20 00:41:38;;;;;;;10.40;5.88;;;16.60;96.90;;;;;;5054810;28;20112;-68
2022/05/20 00:44:06;;;;;;;14.80;5.63;;;16.70;96.70;;;;;;5050936;28;20024;-68
2022/05/20 00:46:40;;;;;;;10.93;5.88;;;16.80;97.20;;;;;;5046457;28;20028;-68
2022/05/20 00:49:14;;;;;;;11.57;6.05;;;17.00;96.80;;;;;;5044635;28;20084;-68
2022/05/20 00:51:45;;;;;;;11.30;5.20;;;17.00;96.80;;;;;;5060124;28;20100;-68
2022/05/20 00:54:24;;;;;;;12.98;5.45;;;17.10;96.90;;;;;;5051092;28;20037;-68
2022/05/20 00:57:03;;;;;;;9.40;5.40;;;17.20;96.90;;;;;;5053057;28;20367;-68
2022/05/20 00:59:30;;;;;;;9.98;4.68;;;17.30;96.50;;;;;;5057004;28;20036;-68
2022/05/20 01:02:08;;;;;;;15.48;6.55;;;17.40;96.50;;;;;;5053230;28;20024;-68
2022/05/20 01:04:35;;;;;;;12.60;5.30;;;17.30;96.70;;;;;;5030926;28;20037;-67
2022/05/20 01:07:01;;;;;;;13.95;5.43;;;17.40;96.60;;;;;;5033460;28;22007;-68
2022/05/20 01:09:31;;;;;;;12.27;5.57;;;17.40;96.50;;;;;;5035169;28;20030;-69
2022/05/20 01:12:03;;;;;;;9.48;5.20;;;17.50;96.20;;;;;;5026699;28;20040;-68
2022/05/20 01:14:36;;;;;;;12.73;4.97;;;17.70;95.70;;;;;;5035210;28;20029;-68
2022/05/20 01:17:01;;;;;;;11.23;5.03;;;17.90;95.00;;;;;;5034987;28;20037;-68
2022/05/20 01:19:30;;;;;;;11.32;4.97;;;18.20;94.40;;;;;;5030208;28;20040;-68
2022/05/20 01:21:56;;;;;;;8.15;4.90;;;18.20;94.20;;;;;;5034131;28;20072;-68
2022/05/20 01:24:22;;;;;;;8.48;5.32;;;18.20;94.00;;;;;;5019568;28;20025;-68
2022/05/20 01:26:48;;;;;;;11.77;4.85;;;18.30;93.90;;;;;;5013908;28;20029;-68
2022/05/20 01:29:13;;;;;;;9.93;4.95;;;18.20;94.00;;;;;;5030119;28;20029;-68
2022/05/20 01:31:39;;;;;;;9.30;4.72;;;18.30;93.70;;;;;;5037563;28;20013;-67
2022/05/20 01:34:04;;;;;;;10.93;5.15;;;18.30;93.60;;;;;;5035905;28;20028;-67
2022/05/20 01:36:36;;;;;;;10.63;5.20;;;18.30;93.70;;;;;;5031629;28;20044;-68
2022/05/20 01:39:02;;;;;;;11.13;4.90;;;18.30;93.40;;;;;;5040858;28;20310;-68
2022/05/20 01:41:42;;;;;;;9.05;4.78;;;18.20;93.70;;;;;;5016401;28;20029;-68
2022/05/20 01:44:23;;;;;;;8.63;4.65;;;18.10;93.90;;;;;;5013523;28;20427;-69
2022/05/20 01:47:24;;;;;;;13.45;5.65;;;17.90;94.80;;;;;;5015290;28;20489;-68
2022/05/20 01:49:52;;;;;;;9.68;5.32;;;17.70;94.80;;;;;;5014772;28;20510;-68
2022/05/20 01:52:43;;;;;;;12.57;4.78;;;17.60;94.70;;;;;;5015738;28;20033;-69
2022/05/20 01:55:20;;;;;;;10.18;4.72;;;17.60;95.00;;;;;;5017627;28;20422;-68
2022/05/20 01:58:11;;;;;;;11.82;5.82;;;17.60;94.50;;;;;;5023053;28;20435;-67
2022/05/20 02:00:39;;;;;;;11.88;4.28;;;17.40;95.40;;;;;;5033453;28;20083;-68
2022/05/20 02:03:14;;;;;;;6.78;4.45;;;17.20;95.60;;;;;;5041347;28;20096;-68
2022/05/20 02:06:07;;;;;;;11.05;4.57;;;17.40;94.90;;;;;;5049207;28;20099;-68
2022/05/20 02:08:39;;;;;;;8.95;4.45;;;17.60;94.50;;;;;;5034644;28;20112;-69
2022/05/20 02:11:13;;;;;;;8.05;3.85;;;17.70;93.80;;;;;;5043234;28;20033;-68
2022/05/20 02:13:46;;;;;;;9.30;5.03;;;17.80;93.40;;;;;;5042128;28;20101;-68
2022/05/20 02:16:17;;;;;;;9.70;4.53;;;17.80;93.50;;;;;;5036435;28;20104;-68
2022/05/20 02:18:54;;;;;;;9.20;3.63;;;18.00;92.90;;;;;;5044242;28;20049;-68
2022/05/20 02:21:24;;;;;;;9.48;3.90;;;18.10;92.70;;;;;;5056207;28;20414;-68
2022/05/20 02:23:58;;;;;;;7.75;3.95;;;18.10;92.30;;;;;;5036122;28;20036;-68
2022/05/20 02:26:30;;;;;;;8.68;4.28;;;18.00;92.30;;;;;;5037330;28;20026;-68
2022/05/20 02:29:03;;;;;;;10.60;4.57;;;18.10;91.90;;;;;;5045496;28;20120;-68
2022/05/20 02:31:54;;;;;;;8.63;4.32;;;18.30;91.30;;;;;;5048851;28;20052;-68
2022/05/20 02:34:19;;;;;;;9.05;4.15;;;18.40;90.60;;;;;;5032917;28;20087;-68
2022/05/20 02:36:45;;;;;;;10.15;4.18;;;18.50;90.20;;;;;;5035199;28;20037;-67
2022/05/20 02:39:17;;;;;;;15.23;4.57;;;18.50;89.90;;;;;;5043380;28;20028;-69
2022/05/20 02:41:48;;;;;;;8.10;3.70;;;18.60;90.00;;;;;;5011671;28;20017;-68
2022/05/20 02:44:17;;;;;;;10.07;3.80;;;18.70;89.60;;;;;;5030848;28;20104;-68
2022/05/20 02:46:48;;;;;;;6.78;3.70;;;18.70;89.10;;;;;;5031681;28;20040;-68
2022/05/20 02:49:14;;;;;;;8.13;4.10;;;18.80;88.50;;;;;;5037286;28;20323;-68
2022/05/20 02:51:40;;;;;;;8.40;3.97;;;18.80;88.50;;;;;;5030944;28;20040;-68
2022/05/20 02:54:06;;;;;;;6.65;3.88;;;18.90;88.10;;;;;;5028827;28;21113;-68
2022/05/20 02:56:37;;;;;;;7.65;4.30;;;19.00;88.20;;;;;;5028121;28;20033;-68
2022/05/20 03:04:32;;;;;;;12.23;4.15;;;19.00;87.80;;;;;;5034429;28;20077;-68
2022/05/20 03:06:58;;;;;;;8.48;3.85;;;19.00;88.20;;;;;;5043537;28;20445;-68
2022/05/20 03:09:25;;;;;;;6.75;3.80;;;18.90;88.30;;;;;;5030386;28;20040;-68
2022/05/20 03:11:51;;;;;;;7.15;3.88;;;18.90;88.00;;;;;;5030044;28;20025;-68
2022/05/20 03:14:19;;;;;;;8.32;4.10;;;19.00;88.20;;;;;;5038956;28;20028;-68
2022/05/20 03:16:46;;;;;;;7.78;3.88;;;19.10;87.70;;;;;;5030385;28;21520;-68
2022/05/20 03:19:12;;;;;;;7.55;3.67;;;19.10;87.80;;;;;;5018056;28;20184;-68
2022/05/20 03:21:39;;;;;;;9.90;3.97;;;19.30;86.70;;;;;;5016596;28;20359;-68
2022/05/20 03:24:06;;;;;;;8.57;4.03;;;19.40;86.70;;;;;;5016302;28;20032;-68
2022/05/20 03:26:32;;;;;;;10.75;4.00;;;19.30;87.20;;;;;;5015553;28;20411;-68
2022/05/20 03:29:03;;;;;;;7.45;4.13;;;19.20;87.40;;;;;;5014714;28;20920;-68
2022/05/20 03:31:31;;;;;;;8.93;4.15;;;19.30;87.20;;;;;;5017629;28;20017;-68
2022/05/20 03:33:57;;;;;;;8.05;3.72;;;19.20;87.70;;;;;;5017778;28;22100;-69
2022/05/20 03:36:23;;;;;;;9.05;4.13;;;19.10;88.00;;;;;;5016737;28;20132;-68
2022/05/20 03:38:49;;;;;;;12.15;4.05;;;18.90;89.40;;;;;;5013075;28;20083;-68
2022/05/20 03:41:17;;;;;;;9.73;4.20;;;18.70;89.40;;;;;;5016151;28;20052;-68
2022/05/20 03:43:42;;;;;;;10.63;4.10;;;18.80;88.50;;;;;;5020673;28;20048;-68
2022/05/20 03:46:08;;;;;;;10.95;3.55;;;19.20;87.70;;;;;;5012518;28;20652;-68
2022/05/20 03:48:34;;;;;;;6.57;3.65;;;19.30;87.20;;;;;;5012388;28;20033;-67
2022/05/20 03:51:10;;;;;;;10.88;4.22;;;19.30;87.60;;;;;;5015175;28;20066;-67
2022/05/20 03:53:43;;;;;;;11.98;4.25;;;19.20;87.90;;;;;;5014870;28;20021;-68
2022/05/20 03:56:10;;;;;;;9.27;3.63;;;19.20;87.80;;;;;;5029727;28;20029;-68
2022/05/20 03:58:36;;;;;;;9.15;3.85;;;19.20;87.50;;;;;;5025911;28;20296;-68
2022/05/20 04:03:51;;;;;;;7.78;3.65;;;19.40;86.70;;;;;;5042931;28;20459;-68
2022/05/20 04:06:17;;;;;;;10.18;4.20;;;19.50;86.70;;;;;;5046547;28;20033;-68
2022/05/20 04:08:43;;;;;;;11.48;4.10;;;19.50;86.70;;;;;;5047773;28;20017;-68
2022/05/20 04:11:11;;;;;;;9.35;4.03;;;19.40;86.90;;;;;;5049279;28;20123;-68
2022/05/20 04:13:39;;;;;;;8.07;4.47;;;19.40;87.00;;;;;;5050903;28;20094;-68
2022/05/20 04:16:08;;;;;;;12.40;4.07;;;19.50;86.90;;;;;;5050344;28;20036;-68
2022/05/20 04:18:34;;;;;;;7.90;4.20;;;19.60;86.40;;;;;;5045967;28;20079;-68
2022/05/20 04:21:01;;;;;;;8.65;3.95;;;19.70;86.40;;;;;;5048335;28;20105;-68
2022/05/20 04:23:26;;;;;;;6.50;3.70;;;19.60;87.10;;;;;;5043210;28;20028;-67
2022/05/20 04:25:52;;;;;;;11.80;4.28;;;19.40;88.70;;;;;;5045110;28;20044;-68
2022/05/20 04:28:18;;;;;;;8.23;4.38;;;19.10;88.80;;;;;;5052261;28;20033;-68
2022/05/20 04:30:44;;;;;;;8.48;4.13;;;18.80;90.20;;;;;;5049119;28;20033;-68
2022/05/20 04:33:10;;;;;;;8.50;3.90;;;18.70;90.40;;;;;;5049274;28;20025;-67
2022/05/20 04:35:36;;;;;;;9.40;4.20;;;18.90;89.50;;;;;;5053056;28;20111;-70
2022/05/20 04:38:05;;;;;;;6.78;3.63;;;18.90;90.30;;;;;;5050571;28;20020;-69
2022/05/20 04:40:31;;;;;;;7.13;3.75;;;18.90;89.30;;;;;;5054290;28;20040;-69
2022/05/20 04:46:56;;;;;;;7.95;3.90;;;19.30;87.90;;;;;;5046209;28;20035;-69
2022/05/20 04:48:33;;;;;;;9.82;4.45;;;19.60;86.70;;;;;;5052611;28;20037;-68
2022/05/20 04:50:59;;;;;;;9.57;4.47;;;19.70;86.50;;;;;;5053624;28;20036;-68
2022/05/20 04:56:11;;;;;;;;;;;20.10;84.60;;;;;;5052173;28;20032;-68
2022/05/20 04:58:37;;;;;;;8.45;3.75;;;20.30;84.20;;;;;;5051193;28;19913;-69
2022/05/20 05:01:04;;;;;;;9.55;3.65;;;20.50;84.40;;;;;;5049632;28;20029;-68
2022/05/20 05:03:30;;;;;;;9.05;3.63;;;20.70;84.10;;;;;;5041474;28;20045;-67
2022/05/20 05:05:55;;;;;;;8.30;3.47;;;20.80;83.70;;;;;;5035780;28;20021;-68
2022/05/20 05:08:24;;;;;;;8.05;4.00;;;21.00;83.40;;;;;;5031521;28;20099;-68
2022/05/20 05:10:52;;;;;;;9.00;4.28;;;21.10;82.80;;;;;;5033670;28;20061;-68
2022/05/20 05:13:17;;;;;;;10.10;3.88;;;21.10;83.20;;;;;;5049257;28;20328;-68
2022/05/20 05:15:45;;;;;;;8.38;3.72;;;21.20;82.90;;;;;;5048660;28;20034;-68
2022/05/20 05:18:14;;;;;;;6.20;3.75;;;21.20;82.60;;;;;;5038978;28;20032;-68
2022/05/20 05:20:50;;;;;;;6.68;4.00;;;21.30;82.80;;;;;;5017352;28;20037;-69
2022/05/20 05:23:16;;;;;;;8.48;3.53;;;21.40;82.50;;;;;;5015684;28;20033;-69
2022/05/20 05:25:43;;;;;;;7.07;3.78;;;21.40;82.60;;;;;;5018487;28;20038;-68
2022/05/20 05:28:09;;;;;;;6.70;3.80;;;21.40;83.00;;;;;;5021894;28;20072;-68
2022/05/20 05:30:35;;;;;;;10.50;3.70;;;21.30;82.40;;;;;;5020602;28;20132;-68
2022/05/20 05:33:01;;;;;;;8.15;3.38;;;21.30;83.70;;;;;;5021880;28;20469;-69
2022/05/20 05:35:30;;;;;;;7.38;3.85;;;21.20;84.00;;;;;;5017721;28;20189;-69
2022/05/20 05:37:55;;;;;;;9.80;4.20;;;21.10;84.40;;;;;;5014739;28;20439;-68
2022/05/20 05:40:24;;;;;;;7.50;3.53;;;20.90;85.50;;;;;;5017229;28;20038;-68
2022/05/20 05:42:50;;;;;;;7.32;3.53;;;20.70;85.20;;;;;;5019610;28;20037;-68
2022/05/20 05:45:21;;;;;;;9.32;3.72;;;20.60;85.30;;;;;;5018284;28;22079;-69
2022/05/20 05:47:51;;;;;;;8.18;3.47;;;20.50;85.90;;;;;;5017862;28;20052;-69
2022/05/20 05:50:17;;;;;;;9.10;3.70;;;20.40;86.50;;;;;;5019016;28;20434;-68
2022/05/20 05:52:42;;;;;;;10.57;4.05;;;20.50;86.10;;;;;;5027783;28;20037;-68
2022/05/20 05:55:11;;;;;;;6.38;3.20;;;20.50;87.40;;;;;;5040274;28;20025;-68
2022/05/20 05:57:37;;;;;;;8.50;3.97;;;20.60;86.80;;;;;;5037317;28;20030;-68
2022/05/20 06:00:05;;;;;;;8.85;4.30;;;20.90;86.10;;;;;;5044031;28;20032;-69
2022/05/20 06:02:31;;;;;;;7.65;3.50;;;21.10;87.10;;;;;;5041572;28;20061;-69
2022/05/20 06:04:57;;;;;;;9.80;3.85;;;21.40;86.20;;;;;;5030195;28;20022;-68
2022/05/20 06:07:22;;;;;;;10.80;4.10;;;21.70;84.20;;;;;;5033429;28;20033;-69
2022/05/20 06:09:48;;;;;;;8.48;3.53;;;21.90;83.40;;;;;;5030381;28;20037;-68
2022/05/20 06:12:14;;;;;;;7.53;3.33;;;22.30;81.50;;;;;;5033884;28;20082;-69
2022/05/20 06:14:40;;;;;;;9.82;3.90;;;22.50;80.10;;;;;;5034308;28;20021;-69
2022/05/20 06:17:10;;;;;;;7.90;3.33;;;22.70;78.80;;;;;;5034866;28;20017;-68
2022/05/20 06:19:35;;;;;;;6.43;3.10;;;22.90;78.40;;;;;;5029408;28;20095;-68
2022/05/20 06:22:01;;;;;;;6.38;3.03;;;22.90;78.30;;;;;;5033450;28;20025;-68
2022/05/20 06:24:27;;;;;;;7.13;3.38;;;22.90;78.60;;;;;;5032114;28;20060;-68
2022/05/20 06:26:54;;;;;;;8.90;3.35;;;23.00;78.50;;;;;;5036078;28;20495;-69
2022/05/20 06:29:25;;;;;;;8.95;3.78;;;23.00;77.10;;;;;;5032862;28;20047;-69
2022/05/20 06:31:54;;;;;;;8.13;3.95;;;23.00;79.00;;;;;;5036024;28;20018;-68
2022/05/20 06:34:22;;;;;;;7.93;3.17;;;23.00;79.70;;;;;;5035125;28;20079;-69
2022/05/20 06:39:50;;;;;;;12.02;3.60;;;22.90;79.30;;;;;;5029403;28;20068;-69
2022/05/20 06:42:19;;;;;;;13.85;3.92;;;23.00;79.50;;;;;;5030609;28;21178;-68
2022/05/20 06:44:45;;;;;;;11.73;3.70;;;23.30;79.80;;;;;;5040195;28;20311;-68
2022/05/20 06:47:12;;;;;;;6.63;2.67;;;23.40;77.90;;;;;;4945942;28;20033;-69
2022/05/20 06:49:37;;;;;;;16.27;4.35;;;23.50;78.10;;;;;;5036151;28;20101;-68
2022/05/20 06:52:03;;;;;;;9.55;3.25;;;23.60;78.30;;;;;;5033927;28;20113;-68
2022/05/20 06:54:29;;;;;;;11.32;3.70;;;23.70;77.80;;;;;;5036047;28;20387;-69
2022/05/20 06:56:55;;;;;;;14.35;3.95;;;23.80;77.30;;;;;;5036016;28;20053;-68
2022/05/20 06:59:23;;;;;;;7.93;3.35;;;23.80;78.20;;;;;;5035388;28;20026;-69
2022/05/20 07:01:49;;;;;;;10.27;3.45;;;24.00;77.30;;;;;;5035834;28;20017;-68
2022/05/20 07:04:21;;;;;;;8.85;3.42;;;24.00;75.60;;;;;;5030503;28;20059;-68
2022/05/20 07:06:50;;;;;;;8.20;3.55;;;24.10;77.80;;;;;;5041855;28;20029;-68
2022/05/20 07:09:16;;;;;;;7.70;3.53;;;24.20;76.60;;;;;;5036010;28;20036;-69
2022/05/20 07:11:42;;;;;;;10.80;3.30;;;24.40;77.50;;;;;;5041527;28;20036;-69
2022/05/20 07:14:07;;;;;;;13.23;3.50;;;24.50;75.70;;;;;;5033524;28;20026;-78
2022/05/20 07:16:33;;;;;;;11.20;4.32;;;24.50;76.60;;;;;;5042891;28;20035;-76
2022/05/20 07:18:59;;;;;;;5.60;3.33;;;24.50;77.40;;;;;;5032751;28;20041;-68
2022/05/20 07:21:25;;;;;;;6.85;3.83;;;24.60;77.20;;;;;;5017123;28;20037;-68
2022/05/20 07:23:51;;;;;;;6.30;3.03;;;24.80;76.40;;;;;;5018639;28;20109;-68
2022/05/20 07:26:17;;;;;;;6.88;3.10;;;25.00;76.10;;;;;;5018310;28;20540;-68
2022/05/20 07:28:44;;;;;;;6.47;3.35;;;25.20;75.20;;;;;;5020164;28;20025;-68
2022/05/20 07:31:10;;;;;;;8.30;3.45;;;25.70;71.50;;;;;;5018460;28;20057;-69
2022/05/20 07:33:37;;;;;;;7.80;3.40;;;26.40;69.90;;;;;;5018511;28;20454;-69
2022/05/20 07:36:04;;;;;;;8.23;3.20;;;26.80;69.70;;;;;;5017535;28;20041;-69
2022/05/20 07:38:29;;;;;;;9.48;3.33;;;27.40;67.80;;;;;;5030806;28;20037;-69
2022/05/20 07:40:58;;;;;;;10.32;3.92;;;27.70;67.40;;;;;;5019521;28;20079;-69
2022/05/20 07:43:24;;;;;;;11.18;3.75;;;28.10;69.60;;;;;;5027888;28;20030;-70
2022/05/20 07:45:51;;;;;;;7.65;2.80;;;29.10;67.50;;;;;;5017433;28;20373;-69
2022/05/20 07:48:20;;;;;;;7.13;3.30;;;29.60;65.20;;;;;;5019668;28;20033;-69
2022/05/20 07:50:49;;;;;;;7.82;3.20;;;29.70;65.70;;;;;;5019217;28;20033;-69
2022/05/20 07:53:23;;;;;;;6.60;2.88;;;29.60;66.20;;;;;;5013932;28;20025;-69
2022/05/20 07:56:11;;;;;;;7.72;3.38;;;29.60;63.60;;;;;;5039997;28;20028;-69
2022/05/20 07:58:44;;;;;;;7.15;3.17;;;30.50;63.20;;;;;;5041201;28;20383;-69
2022/05/20 08:01:10;;;;;;;8.68;2.97;;;31.00;62.70;;;;;;5034538;28;20025;-69
2022/05/20 08:06:22;;;;;;;7.00;2.65;;;31.00;64.00;;;;;;5033592;28;20076;-69
2022/05/20 08:08:48;;;;;;;6.80;2.83;;;31.70;61.00;;;;;;5046387;28;20025;-69
2022/05/20 08:11:16;;;;;;;10.25;3.30;;;32.20;60.40;;;;;;5051817;28;20028;-69
2022/05/20 08:13:42;;;;;;;9.50;3.03;;;32.20;60.10;;;;;;5053659;28;20013;-69
2022/05/20 08:16:08;;;;;;;8.45;3.72;;;32.40;58.30;;;;;;5045083;28;20342;-69
2022/05/20 08:18:36;;;;;;;6.55;2.67;;;32.60;59.20;;;;;;5042505;28;20318;-69
2022/05/20 08:21:04;;;;;;;8.35;3.30;;;32.20;57.90;;;;;;5046333;28;20044;-69
2022/05/20 08:23:32;;;;;;;7.93;3.33;;;31.90;58.20;;;;;;5041289;28;20032;-68
2022/05/20 08:26:01;;;;;;;7.65;2.80;;;31.70;60.30;;;;;;5046204;28;20021;-69
2022/05/20 08:28:26;;;;;;;9.50;3.15;;;31.90;58.80;;;;;;5043255;28;20033;-69
2022/05/20 08:30:52;;;;;;;6.47;2.78;;;32.50;58.60;;;;;;5048017;28;20484;-68
2022/05/20 08:33:18;;;;;;;6.63;2.90;;;32.80;58.50;;;;;;5041889;28;20025;-69
2022/05/20 08:35:43;;;;;;;8.45;2.90;;;32.50;56.50;;;;;;5049151;28;20060;-69
2022/05/20 08:38:09;;;;;;;6.60;3.20;;;32.00;57.70;;;;;;5035869;28;20032;-69
2022/05/20 08:40:43;;;;;;;6.38;2.90;;;31.50;58.20;;;;;;5034802;28;20037;-69
2022/05/20 08:43:10;;;;;;;7.63;3.42;;;31.00;58.30;;;;;;5036872;28;20351;-68
2022/05/20 08:45:36;;;;;;;9.95;3.03;;;30.90;60.00;;;;;;5040954;28;20033;-69
2022/05/20 08:48:05;;;;;;;6.03;3.17;;;31.10;59.20;;;;;;5035524;28;20040;-69
2022/05/20 08:50:41;;;;;;;8.35;2.80;;;31.30;59.30;;;;;;5035329;28;20032;-69
2022/05/20 08:53:23;;;;;;;8.80;3.97;;;30.60;58.40;;;;;;5030724;28;20506;-69
2022/05/20 08:55:49;;;;;;;7.60;4.03;;;29.50;62.10;;;;;;5035404;28;20040;-69
2022/05/20 08:58:26;;;;;;;7.07;3.13;;;28.80;62.40;;;;;;5037862;28;20734;-69
2022/05/20 09:00:51;;;;;;;7.90;3.17;;;29.50;62.10;;;;;;5054900;28;20025;-69
2022/05/20 09:03:17;;;;;;;6.47;2.90;;;30.20;60.60;;;;;;5046349;28;20128;-69
2022/05/20 09:05:44;;;;;;;6.90;3.60;;;30.40;59.90;;;;;;5046854;28;20368;-68
2022/05/20 09:08:16;;;;;;;7.95;3.13;;;30.60;59.60;;;;;;5033065;28;20021;-69
2022/05/20 09:10:44;;;;;;;12.80;3.22;;;30.40;59.00;;;;;;5055356;28;20375;-69
2022/05/20 09:13:22;;;;;;;7.80;2.97;;;30.30;59.40;;;;;;5053027;28;20025;-69
2022/05/20 09:16:01;;;;;;;11.85;3.53;;;30.80;58.60;;;;;;5057693;28;20139;-69
2022/05/20 09:18:41;;;;;;;10.05;3.33;;;30.90;57.90;;;;;;5057319;28;20036;-69
2022/05/20 09:21:14;;;;;;;10.27;3.30;;;31.00;58.20;;;;;;5057925;28;20032;-68
2022/05/20 09:23:51;;;;;;;8.35;3.65;;;31.20;56.50;;;;;;5042315;28;20114;-69
2022/05/20 09:26:24;;;;;;;7.82;3.45;;;31.10;57.00;;;;;;5057950;28;20029;-69
2022/05/20 09:29:04;;;;;;;8.45;3.20;;;31.00;56.40;;;;;;5044532;28;20029;-68
2022/05/20 09:31:56;;;;;;;8.50;3.28;;;31.00;56.30;;;;;;5039983;28;20025;-68
2022/05/20 09:34:25;;;;;;;10.50;3.17;;;30.60;57.30;;;;;;5039976;28;20033;-69
2022/05/20 09:37:16;;;;;;;8.73;3.05;;;30.60;57.40;;;;;;5037945;28;20044;-69
2022/05/20 09:39:48;;;;;;;8.13;3.03;;;31.20;58.50;;;;;;5040011;28;20364;-68
2022/05/20 09:42:26;;;;;;;7.93;3.00;;;31.60;55.20;;;;;;5039797;28;20028;-68
2022/05/20 09:45:00;;;;;;;8.45;2.90;;;30.90;55.30;;;;;;5037859;28;20036;-68
2022/05/20 09:47:34;;;;;;;6.35;2.85;;;30.60;58.10;;;;;;5042147;28;20044;-68
2022/05/20 09:50:34;;;;;;;8.65;3.05;;;31.00;56.80;;;;;;5040646;28;20121;-69
2022/05/20 09:53:33;;;;;;;6.28;2.90;;;31.10;56.70;;;;;;5042405;28;20029;-68
2022/05/20 09:56:31;;;;;;;7.57;3.03;;;31.20;54.80;;;;;;5031856;28;20025;-68
2022/05/20 09:59:26;;;;;;;7.15;3.38;;;31.40;55.80;;;;;;5022417;28;20029;-68
2022/05/20 10:02:18;;;;;;;8.25;3.15;;;31.60;55.70;;;;;;5007562;28;20443;-69
2022/05/20 10:04:52;;;;;;;9.63;3.00;;;31.80;55.10;;;;;;5037848;28;20045;-69
2022/05/20 10:07:30;;;;;;;9.02;2.80;;;31.20;55.30;;;;;;5053812;28;20021;-68
2022/05/20 10:10:15;;;;;;;7.72;3.15;;;31.30;55.90;;;;;;5050614;28;20025;-68
2022/05/20 10:12:45;;;;;;;7.93;2.80;;;31.40;54.40;;;;;;5049753;28;20021;-68
2022/05/20 10:15:45;;;;;;;7.47;2.80;;;31.20;54.60;;;;;;5055768;28;20033;-68
2022/05/20 10:18:41;;;;;;;8.27;2.90;;;31.40;55.70;;;;;;5051933;28;20025;-68
2022/05/20 10:21:48;;;;;;;7.75;3.05;;;31.50;55.00;;;;;;5052136;28;20319;-67
2022/05/20 10:24:51;;;;;;;5.38;2.83;;;31.60;56.10;;;;;;4954770;28;20102;-69
2022/05/20 10:27:25;;;;;;;12.80;2.88;;;31.90;54.90;;;;;;4954250;29;20035;-69
2022/05/20 10:32:52;;;;;;;6.35;2.75;;;32.20;54.50;;;;;;5055160;28;20067;-70
2022/05/20 10:35:22;;;;;;;7.25;3.20;;;32.60;56.40;;;;;;5054413;28;20056;-69
2022/05/20 10:38:05;;;;;;;7.32;2.85;;;32.10;54.60;;;;;;5054633;28;20121;-68
2022/05/20 10:40:39;;;;;;;6.25;2.83;;;32.10;54.30;;;;;;5047021;28;20029;-68
2022/05/20 10:43:27;;;;;;;8.18;2.95;;;31.80;55.30;;;;;;5045645;28;20025;-68
2022/05/20 10:49:02;;;;;;;9.50;2.80;;;32.10;56.20;;;;;;5053435;28;20365;-69
2022/05/20 10:51:56;;;;;;;28.40;3.30;;;32.50;54.20;;;;;;5054793;28;20021;-69
2022/05/20 10:55:00;;;;;;;;;;;32.30;53.90;;;;;;5056737;28;20029;-69
2022/05/20 10:57:36;;;;;;;6.55;2.78;;;31.80;54.60;;;;;;4989531;28;20386;-68
2022/05/20 11:00:12;;;;;;;6.68;2.80;;;31.80;55.30;;;;;;4970191;28;20053;-69
2022/05/20 11:03:09;;;;;;;7.53;3.13;;;32.20;54.60;;;;;;5009953;28;20037;-68
2022/05/20 11:06:10;;;;;;;7.25;3.03;;;31.90;54.00;;;;;;5051843;28;20021;-68
2022/05/20 11:09:02;;;;;;;7.57;2.85;;;32.30;52.50;;;;;;5049661;28;20020;-69
2022/05/20 11:11:53;;;;;;;7.80;2.97;;;32.30;53.70;;;;;;5054002;28;20036;-69
2022/05/20 11:14:31;;;;;;;9.30;2.92;;;32.70;52.40;;;;;;5055667;28;20033;-69
2022/05/20 11:16:57;;;;;;;7.82;3.25;;;32.30;52.00;;;;;;5054072;28;20024;-69
2022/05/20 11:19:25;;;;;;;10.48;3.35;;;32.30;50.30;;;;;;5041374;28;20029;-69
2022/05/20 11:22:06;;;;;;;8.65;3.17;;;32.40;50.10;;;;;;5034459;28;20037;-69
2022/05/20 11:24:59;;;;;;;8.65;2.55;;;32.70;51.30;;;;;;5038379;28;20121;-69
2022/05/20 11:28:02;;;;;;;6.80;2.47;;;32.50;51.20;;;;;;5037446;28;20064;-69
2022/05/20 11:30:58;;;;;;;8.50;2.55;;;32.50;51.20;;;;;;5039227;28;20065;-69
2022/05/20 11:33:42;;;;;;;8.43;2.40;;;32.30;50.00;;;;;;5029765;28;20089;-69
2022/05/20 11:36:21;;;;;;;12.00;2.65;;;32.40;49.60;;;;;;5033709;28;20036;-69
2022/05/20 11:39:09;;;;;;;8.20;2.60;;;32.40;49.70;;;;;;5038767;28;20338;-69
2022/05/20 11:41:49;;;;;;;7.45;2.78;;;32.40;49.70;;;;;;5038372;28;20124;-69
2022/05/20 11:44:17;;;;;;;6.50;2.83;;;32.00;51.30;;;;;;5042565;28;20051;-69
2022/05/20 11:47:10;;;;;;;9.20;2.53;;;31.90;49.40;;;;;;5038452;28;20114;-69
2022/05/20 11:49:49;;;;;;;7.60;2.72;;;31.90;51.20;;;;;;5040229;28;20036;-69
2022/05/20 11:52:15;;;;;;;8.85;2.83;;;31.80;51.00;;;;;;5038752;28;20476;-69
2022/05/20 11:54:49;;;;;;;10.60;3.10;;;31.80;52.20;;;;;;5054190;28;20025;-69
2022/05/20 11:57:38;;;;;;;9.15;3.10;;;32.10;50.30;;;;;;5047676;28;20021;-69
2022/05/20 12:00:17;;;;;;;11.02;2.85;;;32.20;49.20;;;;;;5050433;28;20029;-69
2022/05/20 12:02:48;;;;;;;8.52;3.30;;;32.40;50.30;;;;;;5033500;28;20430;-69
2022/05/20 12:05:19;;;;;;;6.43;2.60;;;32.40;51.20;;;;;;5053315;28;20028;-69
2022/05/20 12:07:44;;;;;;;12.93;3.20;;;32.80;49.90;;;;;;5050904;28;20024;-69
2022/05/20 12:10:30;;;;;;;12.93;2.90;;;32.80;48.50;;;;;;5053450;28;20039;-69
2022/05/20 12:13:16;;;;;;;7.75;2.55;;;32.50;49.40;;;;;;5033362;28;20125;-69
2022/05/20 12:15:44;;;;;;;7.05;2.67;;;32.60;50.90;;;;;;5051960;28;20075;-69
2022/05/20 12:24:12;;;;;;;7.50;2.40;;;32.60;49.20;;;;;;5051638;28;20047;-69
2022/05/20 12:24:13;;;;;;;8.55;3.28;;;32.80;49.50;;;;;;5053720;28;20106;-69
2022/05/20 12:26:54;;;;;;;8.45;2.55;;;32.80;50.30;;;;;;5052269;28;20051;-69
2022/05/20 12:29:35;;;;;;;9.20;2.95;;;33.10;50.30;;;;;;5053193;28;20021;-69
2022/05/20 12:32:31;;;;;;;10.02;2.47;;;33.10;49.30;;;;;;5050596;28;20017;-69
2022/05/20 12:35:29;;;;;;;6.68;2.90;;;33.30;50.40;;;;;;5050248;28;20024;-69
2022/05/20 12:38:16;;;;;;;7.07;2.47;;;33.00;50.20;;;;;;5050628;28;20029;-69
2022/05/20 12:40:49;;;;;;;8.13;3.20;;;33.30;52.00;;;;;;5051107;28;20064;-69
2022/05/20 12:43:15;;;;;;;7.68;3.13;;;33.40;49.30;;;;;;5048084;28;20037;-68
2022/05/20 12:45:54;;;;;;;7.57;2.58;;;33.10;49.10;;;;;;5050758;28;20322;-68
2022/05/20 12:48:30;;;;;;;8.32;2.65;;;33.00;50.40;;;;;;5050478;28;20375;-68
2022/05/20 12:51:01;;;;;;;13.55;3.70;;;33.00;51.00;;;;;;5052622;28;20051;-68
2022/05/20 12:53:29;;;;;;;6.85;2.83;;;33.00;49.40;;;;;;5053710;28;20078;-68
2022/05/20 12:55:59;;;;;;;7.07;2.88;;;33.20;51.20;;;;;;5054636;28;20025;-69
2022/05/20 12:58:30;;;;;;;6.18;2.60;;;33.70;49.70;;;;;;5056582;28;20086;-68
2022/05/20 13:01:00;;;;;;;7.95;3.15;;;34.00;49.70;;;;;;5055146;28;20465;-68
2022/05/20 13:03:40;;;;;;;9.05;3.00;;;34.30;49.90;;;;;;5055528;28;20090;-68
2022/05/20 13:06:17;;;;;;;8.38;2.83;;;34.80;49.60;;;;;;5056262;28;20028;-68
2022/05/20 13:08:49;;;;;;;7.70;2.47;;;34.80;49.30;;;;;;5054064;28;20102;-68
2022/05/20 13:11:18;;;;;;;6.60;2.85;;;35.10;49.00;;;;;;5054609;28;20033;-68
2022/05/20 13:13:45;;;;;;;6.38;2.50;;;35.10;48.10;;;;;;5055837;28;20031;-69
2022/05/20 13:16:14;;;;;;;8.00;3.15;;;34.60;49.10;;;;;;5052160;28;20024;-67
2022/05/20 13:18:43;;;;;;;8.90;2.78;;;35.00;48.60;;;;;;5048787;28;20032;-68
2022/05/20 13:21:20;;;;;;;10.10;3.08;;;35.10;48.20;;;;;;5040209;28;20047;-69
2022/05/20 13:23:53;;;;;;;9.40;3.08;;;34.70;48.60;;;;;;5040083;28;20025;-68
2022/05/20 13:26:31;;;;;;;7.67;2.70;;;34.30;47.10;;;;;;5037893;28;21304;-68
2022/05/20 13:29:13;;;;;;;6.47;2.63;;;34.20;48.80;;;;;;5038561;28;20021;-69
2022/05/20 13:31:42;;;;;;;6.72;2.42;;;34.60;48.40;;;;;;5039253;28;20123;-69
2022/05/20 13:34:09;;;;;;;6.40;2.30;;;35.00;47.30;;;;;;5038564;28;20037;-68
2022/05/20 13:36:45;;;;;;;7.97;2.75;;;35.10;47.90;;;;;;5037902;28;20087;-69
2022/05/20 13:39:16;;;;;;;6.18;2.60;;;35.50;49.20;;;;;;5039924;28;20466;-69